createdAt,value
2023-01-06T00:01:38.629Z,100.00
2023-01-06T00:04:08.911Z,100.00
2023-01-06T00:06:39.777Z,100.00
2023-01-06T00:09:10.708Z,100.00
2023-01-06T00:11:41.403Z,100.00
2023-01-06T00:14:13.300Z,100.00
2023-01-06T00:16:43.760Z,100.00
2023-01-06T00:19:13.973Z,100.00
2023-01-06T00:21:46.153Z,100.00
2023-01-06T00:24:16.338Z,100.00
2023-01-06T00:26:46.673Z,100.00
2023-01-06T00:29:17.084Z,100.00
2023-01-06T00:31:47.324Z,100.00
2023-01-06T00:34:18.019Z,100.00
2023-01-06T00:36:48.580Z,100.00
2023-01-06T00:39:18.840Z,100.00
2023-01-06T00:41:49.888Z,100.00
2023-01-06T00:44:20.167Z,100.00
2023-01-06T00:46:50.727Z,100.00
2023-01-06T00:49:21.277Z,100.00
2023-01-06T00:51:52.525Z,100.00
2023-01-06T00:54:22.938Z,100.00
2023-01-06T00:56:55.118Z,100.00
2023-01-06T00:59:26.734Z,100.00
2023-01-06T01:01:58.425Z,100.00
2023-01-06T01:04:29.106Z,100.00
2023-01-06T01:07:00.091Z,100.00
2023-01-06T01:09:31.964Z,100.00
2023-01-06T01:12:02.704Z,100.00
2023-01-06T01:14:34.508Z,100.00
2023-01-06T01:17:04.830Z,100.00
2023-01-06T01:19:39.781Z,100.00
2023-01-06T01:22:10.700Z,100.00
2023-01-06T01:27:52.012Z,100.00
2023-01-06T01:30:24.032Z,100.00
2023-01-06T01:32:55.360Z,100.00
2023-01-06T01:35:25.741Z,100.00
2023-01-06T01:37:56.031Z,100.00
2023-01-06T01:40:26.422Z,100.00
2023-01-06T01:42:57.753Z,100.00
2023-01-06T01:45:30.027Z,100.00
2023-01-06T01:48:08.778Z,100.00
2023-01-06T01:50:44.535Z,100.00
2023-01-06T01:53:18.346Z,100.00
2023-01-06T01:55:51.583Z,100.00
2023-01-06T01:58:24.932Z,100.00
2023-01-06T02:00:55.253Z,100.00
2023-01-06T02:03:27.607Z,100.00
2023-01-06T02:06:00.947Z,100.00
2023-01-06T02:08:40.677Z,100.00
2023-01-06T02:11:11.706Z,100.00
2023-01-06T02:13:44.870Z,100.00
2023-01-06T02:16:32.450Z,100.00
2023-01-06T02:19:25.203Z,100.00
2023-01-06T02:22:24.120Z,100.00
2023-01-06T02:25:21.073Z,100.00
2023-01-06T02:28:16.806Z,100.00
2023-01-06T02:33:33.529Z,100.00
2023-01-06T02:36:09.926Z,100.00
2023-01-06T02:41:53.833Z,100.00
2023-01-06T02:44:27.054Z,100.00
2023-01-06T02:47:00.219Z,100.00
2023-01-06T02:49:39.150Z,100.00
2023-01-06T02:52:30.725Z,100.00
2023-01-06T02:55:09.677Z,100.00
2023-01-06T02:57:43.099Z,100.00
2023-01-06T03:00:29.447Z,100.00
2023-01-06T03:03:23.351Z,100.00
2023-01-06T03:05:56.623Z,100.00
2023-01-06T03:08:30.005Z,100.00
2023-01-06T03:11:02.669Z,100.00
2023-01-06T03:13:41.835Z,100.00
2023-01-06T03:16:12.486Z,100.00
2023-01-06T03:18:45.392Z,100.00
2023-01-06T03:21:21.104Z,100.00
2023-01-06T03:23:52.260Z,100.00
2023-01-06T03:26:24.181Z,100.00
2023-01-06T03:28:54.597Z,100.00
2023-01-06T03:31:33.548Z,100.00
2023-01-06T03:34:34.818Z,100.00
2023-01-06T03:37:27.450Z,100.00
2023-01-06T03:40:27.280Z,100.00
2023-01-06T03:43:17.333Z,100.00
2023-01-06T03:45:58.999Z,100.00
2023-01-06T03:48:47.343Z,100.00
2023-01-06T03:51:38.351Z,100.00
2023-01-06T03:54:43.135Z,100.00
2023-01-06T03:57:24.921Z,100.00
2023-01-06T04:00:00.620Z,100.00
2023-01-06T04:02:31.410Z,100.00
2023-01-06T04:05:06.877Z,100.00
2023-01-06T04:07:41.867Z,100.00
2023-01-06T04:10:14.895Z,100.00
2023-01-06T04:12:45.831Z,100.00
2023-01-06T04:15:18.879Z,100.00
2023-01-06T04:17:50.376Z,100.00
2023-01-06T04:20:23.868Z,100.00
2023-01-06T04:22:55.584Z,100.00
2023-01-06T04:25:26.371Z,100.00
2023-01-06T04:27:56.666Z,100.00
2023-01-06T04:30:26.865Z,100.00
2023-01-06T04:32:57.718Z,100.00
2023-01-06T04:35:28.140Z,100.00
2023-01-06T04:38:00.161Z,100.00
2023-01-06T04:40:30.510Z,100.00
2023-01-06T04:43:00.753Z,100.00
2023-01-06T04:45:31.209Z,100.00
2023-01-06T04:48:01.482Z,100.00
2023-01-06T04:50:31.699Z,100.00
2023-01-06T04:53:01.910Z,100.00
2023-01-06T04:55:36.959Z,100.00
2023-01-06T04:58:07.758Z,100.00
2023-01-06T05:00:39.151Z,100.00
2023-01-06T05:03:09.682Z,100.00
2023-01-06T05:05:40.066Z,100.00
2023-01-06T05:08:11.387Z,100.00
2023-01-06T05:10:42.268Z,100.00
2023-01-06T05:13:21.243Z,100.00
2023-01-06T05:15:51.783Z,100.00
2023-01-06T05:18:22.177Z,100.00
2023-01-06T05:20:54.543Z,100.00
2023-01-06T05:23:25.073Z,100.00
2023-01-06T05:25:58.977Z,100.00
2023-01-06T05:28:50.031Z,100.00
2023-01-06T05:31:20.474Z,100.00
2023-01-06T05:33:51.531Z,100.00
2023-01-06T05:36:23.084Z,100.00
2023-01-06T05:38:54.832Z,100.00
2023-01-06T05:41:25.810Z,100.00
2023-01-06T05:43:56.948Z,100.00
2023-01-06T05:46:28.331Z,100.00
2023-01-06T05:49:01.415Z,100.00
2023-01-06T05:51:31.848Z,100.00
2023-01-06T05:54:02.182Z,100.00
2023-01-06T05:56:32.440Z,100.00
2023-01-06T05:59:03.352Z,100.00
2023-01-06T06:01:33.826Z,100.00
2023-01-06T06:04:04.422Z,100.00
2023-01-06T06:06:35.166Z,100.00
2023-01-06T06:09:06.380Z,100.00
2023-01-06T06:11:38.680Z,100.00
2023-01-06T06:14:10.292Z,100.00
2023-01-06T06:16:42.010Z,100.00
2023-01-06T06:19:14.072Z,100.00
2023-01-06T06:21:45.756Z,100.00
2023-01-06T06:24:17.735Z,100.00
2023-01-06T06:26:47.993Z,100.00
2023-01-06T06:29:19.458Z,100.00
2023-01-06T06:31:50.331Z,100.00
2023-01-06T06:34:22.511Z,100.00
2023-01-06T06:36:53.642Z,100.00
2023-01-06T06:39:24.776Z,100.00
2023-01-06T06:41:56.074Z,100.00
2023-01-06T06:44:26.479Z,100.00
2023-01-06T06:46:56.673Z,100.00
2023-01-06T06:49:35.315Z,100.00
2023-01-06T06:52:04.775Z,100.00
2023-01-06T06:54:35.072Z,100.00
2023-01-06T06:57:05.482Z,100.00
2023-01-06T06:59:35.847Z,100.00
2023-01-06T07:02:11.839Z,100.00
2023-01-06T07:04:41.938Z,100.00
2023-01-06T07:07:12.372Z,100.00
2023-01-06T07:09:46.813Z,100.00
2023-01-06T07:12:16.940Z,100.00
2023-01-06T07:14:49.329Z,100.00
2023-01-06T07:17:23.257Z,100.00
2023-01-06T07:19:54.256Z,100.00
2023-01-06T07:22:24.680Z,100.00
2023-01-06T07:24:54.972Z,100.00
2023-01-06T07:27:27.831Z,100.00
2023-01-06T07:29:58.374Z,100.00
2023-01-06T07:32:32.222Z,100.00
2023-01-06T07:35:08.565Z,100.00
2023-01-06T07:37:38.980Z,100.00
2023-01-06T07:40:09.914Z,100.00
2023-01-06T07:42:41.946Z,100.00
2023-01-06T07:45:12.522Z,100.00
2023-01-06T07:47:44.279Z,100.00
2023-01-06T07:50:14.589Z,100.00
2023-01-06T07:52:45.344Z,100.00
2023-01-06T07:55:15.797Z,100.00
2023-01-06T07:57:50.863Z,100.00
2023-01-06T08:00:19.986Z,100.00
2023-01-06T08:02:50.314Z,100.00
2023-01-06T08:05:20.789Z,100.00
2023-01-06T08:07:51.049Z,100.00
2023-01-06T08:10:21.351Z,100.00
2023-01-06T08:12:51.802Z,100.00
2023-01-06T08:15:22.170Z,100.00
2023-01-06T08:17:55.935Z,100.00
2023-01-06T08:20:29.179Z,100.00
2023-01-06T08:22:59.585Z,100.00
2023-01-06T08:25:30.036Z,100.00
2023-01-06T08:28:01.753Z,100.00
2023-01-06T08:30:34.069Z,100.00
2023-01-06T08:33:04.507Z,100.00
2023-01-06T08:35:35.004Z,100.00
2023-01-06T08:38:10.059Z,100.00
2023-01-06T08:40:40.809Z,100.00
2023-01-06T08:43:18.084Z,100.00
2023-01-06T08:45:48.912Z,100.00
2023-01-06T08:48:26.480Z,100.00
2023-01-06T08:50:58.465Z,100.00
2023-01-06T08:53:45.789Z,100.00
2023-01-06T08:56:16.078Z,100.00
2023-01-06T08:58:51.761Z,100.00
2023-01-06T09:01:25.410Z,100.00
2023-01-06T09:03:59.362Z,100.00
2023-01-06T09:06:30.811Z,100.00
2023-01-06T09:09:01.361Z,100.00
2023-01-06T09:11:33.709Z,100.00
2023-01-06T09:17:08.374Z,100.00
2023-01-06T09:19:41.229Z,100.00
2023-01-06T09:22:12.722Z,100.00
2023-01-06T09:24:45.696Z,100.00
2023-01-06T09:27:23.802Z,100.00
2023-01-06T09:29:57.052Z,100.00
2023-01-06T09:32:28.232Z,100.00
2023-01-06T09:34:58.900Z,100.00
2023-01-06T09:37:32.207Z,100.00
2023-01-06T09:40:03.758Z,100.00
2023-01-06T09:43:15.264Z,100.00
2023-01-06T09:45:54.207Z,100.00
2023-01-06T09:48:27.986Z,100.00
2023-01-06T09:51:07.160Z,100.00
2023-01-06T09:53:43.410Z,100.00
2023-01-06T09:56:16.657Z,100.00
2023-01-06T09:58:50.058Z,100.00
2023-01-06T10:01:24.817Z,100.00
2023-01-06T10:03:56.822Z,100.00
2023-01-06T10:06:42.628Z,100.00
2023-01-06T10:09:32.120Z,100.00
2023-01-06T10:12:26.594Z,100.00
2023-01-06T13:39:11.201Z,100.00
2023-01-06T13:41:47.874Z,99.60
2023-01-06T13:44:30.124Z,99.62
2023-01-06T13:47:21.194Z,98.75
2023-01-06T13:49:54.298Z,98.88
2023-01-06T13:52:42.990Z,99.10
2023-01-06T13:55:26.250Z,99.12
2023-01-06T13:57:58.601Z,97.08
2023-01-06T14:00:33.954Z,98.08
2023-01-06T14:03:11.590Z,97.82
2023-01-06T14:05:45.154Z,98.65
2023-01-06T14:11:27.994Z,98.05
2023-01-06T14:14:18.705Z,95.17
2023-01-06T14:17:09.996Z,95.24
2023-01-06T14:21:20.689Z,95.24
2023-01-06T14:25:10.536Z,96.63
2023-01-06T14:28:05.601Z,95.07
2023-01-06T14:30:42.954Z,96.75
2023-01-06T14:33:37.890Z,96.75
2023-01-06T14:36:17.867Z,96.62
2023-01-06T14:39:05.912Z,95.46
2023-01-06T14:41:57.917Z,95.46
2023-01-06T14:44:41.263Z,95.81
2023-01-06T14:47:30.912Z,95.77
2023-01-06T14:50:04.503Z,96.04
2023-01-06T14:52:42.450Z,96.04
2023-01-06T14:55:19.862Z,95.72
2023-01-06T14:58:10.920Z,95.12
2023-01-06T15:00:47.303Z,95.12
2023-01-06T15:03:22.814Z,95.93
2023-01-06T15:06:13.883Z,96.17
2023-01-06T15:08:49.207Z,96.76
2023-01-06T15:11:58.244Z,96.68
2023-01-06T15:14:29.876Z,99.03
2023-01-06T15:17:03.465Z,98.65
2023-01-06T15:19:57.266Z,98.45
2023-01-06T15:22:31.039Z,98.45
2023-01-06T15:25:08.590Z,97.56
2023-01-06T15:27:46.571Z,98.92
2023-01-06T15:30:26.544Z,98.99
2023-01-06T15:33:02.757Z,98.99
2023-01-06T15:38:52.029Z,100.00
2023-01-06T15:44:51.496Z,100.00
2023-01-06T15:47:43.588Z,100.00
2023-01-06T15:50:22.700Z,99.71
2023-01-06T15:52:59.547Z,97.33
2023-01-06T15:55:40.813Z,96.20
2023-01-06T16:04:22.656Z,94.95
2023-01-06T16:13:21.339Z,94.12
2023-01-06T16:16:16.533Z,92.68
2023-01-06T16:18:57.960Z,93.66
2023-01-06T16:21:33.561Z,92.43
2023-01-06T16:24:26.751Z,92.43
2023-01-06T16:27:23.120Z,95.02
2023-01-06T16:30:10.192Z,92.90
2023-01-06T16:32:43.381Z,90.77
2023-01-06T16:35:27.439Z,90.56
2023-01-06T16:38:05.355Z,90.56
2023-01-06T16:40:36.752Z,88.54
2023-01-06T16:43:09.179Z,88.54
2023-01-06T16:45:45.819Z,86.68
2023-01-06T16:48:18.946Z,87.49
2023-01-06T16:50:51.032Z,86.88
2023-01-06T16:53:23.305Z,86.17
2023-01-06T16:55:56.973Z,86.17
2023-01-06T16:58:33.204Z,87.34
2023-01-06T17:01:09.837Z,87.18
2023-01-06T17:03:43.402Z,87.18
2023-01-06T17:06:22.089Z,86.15
2023-01-06T17:08:55.679Z,86.15
2023-01-06T17:11:33.148Z,88.00
2023-01-06T17:14:20.682Z,88.00
2023-01-06T17:16:51.885Z,87.71
2023-01-06T17:19:44.221Z,86.71
2023-01-06T17:22:31.142Z,86.71
2023-01-06T17:25:04.221Z,88.15
2023-01-06T17:27:46.103Z,88.59
2023-01-06T17:30:19.282Z,88.59
2023-01-06T17:32:52.182Z,88.68
2023-01-06T17:35:33.189Z,88.68
2023-01-06T17:38:21.281Z,89.76
2023-01-06T17:40:53.522Z,91.81
2023-01-06T17:43:41.472Z,91.41
2023-01-06T17:46:37.810Z,90.94
2023-01-06T17:49:27.781Z,91.74
2023-01-06T17:52:28.534Z,90.37
2023-01-06T17:55:01.951Z,89.63
2023-01-06T17:57:34.564Z,90.22
2023-01-06T18:00:20.177Z,90.22
2023-01-06T18:02:59.834Z,88.00
2023-01-06T18:05:46.294Z,88.00
2023-01-06T18:08:45.490Z,87.37
2023-01-06T18:11:34.029Z,87.99
2023-01-06T18:14:17.770Z,88.65
2023-01-06T18:16:57.012Z,89.06
2023-01-06T18:19:31.169Z,89.88
2023-01-06T18:22:13.409Z,89.72
2023-01-06T18:24:49.417Z,89.72
2023-01-06T18:27:24.903Z,87.12
2023-01-06T18:33:07.580Z,85.53
2023-01-06T18:35:39.299Z,85.52
2023-01-06T18:38:10.538Z,85.33
2023-01-06T18:40:48.725Z,85.77
2023-01-06T18:43:35.254Z,83.92
2023-01-06T18:46:26.911Z,82.26
2023-01-06T18:49:12.646Z,82.71
2023-01-06T18:51:49.335Z,82.80
2023-01-06T18:54:22.923Z,82.80
2023-01-06T18:56:54.147Z,82.39
2023-01-06T18:59:30.485Z,81.81
2023-01-06T19:02:03.808Z,81.32
2023-01-06T19:04:35.361Z,82.61
2023-01-06T19:07:20.135Z,82.77
2023-01-06T19:09:54.503Z,81.86
2023-01-06T19:12:35.344Z,80.56
2023-01-06T19:15:21.618Z,80.56
2023-01-06T19:17:55.375Z,79.97
2023-01-06T19:20:28.035Z,79.85
2023-01-06T19:23:02.936Z,79.85
2023-01-06T19:25:39.278Z,78.94
2023-01-06T19:28:18.303Z,79.37
2023-01-06T19:30:54.299Z,79.83
2023-01-06T19:34:04.983Z,77.72
2023-01-06T19:36:58.338Z,77.72
2023-01-06T19:42:58.119Z,79.22
2023-01-06T19:45:34.186Z,78.88
2023-01-06T19:48:15.480Z,77.35
2023-01-06T19:50:50.111Z,77.40
2023-01-06T19:56:50.327Z,77.67
2023-01-06T20:02:40.635Z,79.17
2023-01-06T20:05:22.351Z,80.13
2023-01-06T20:11:01.009Z,80.81
2023-01-06T20:16:40.481Z,80.87
2023-01-06T20:19:20.068Z,81.69
2023-01-06T20:21:54.003Z,81.69
2023-01-06T20:24:33.647Z,79.95
2023-01-06T20:27:17.464Z,81.15
2023-01-06T20:36:02.325Z,83.41
2023-01-06T20:38:41.927Z,82.69
2023-01-06T20:41:15.428Z,82.46
2023-01-06T20:43:46.806Z,82.46
2023-01-06T20:46:18.660Z,83.15
2023-01-06T20:48:52.099Z,83.70
2023-01-06T20:51:25.408Z,83.35
2023-01-06T20:53:56.047Z,82.08
2023-01-06T20:56:26.532Z,80.95
2023-01-06T20:58:56.935Z,83.07
2023-01-06T21:01:29.617Z,83.07
2023-01-06T21:04:00.058Z,81.87
2023-01-06T21:06:31.462Z,83.05
2023-01-06T21:09:02.543Z,84.01
2023-01-06T21:11:33.485Z,84.01
2023-01-06T21:14:04.255Z,83.79
2023-01-06T21:16:37.177Z,82.76
2023-01-06T21:19:08.243Z,83.05
2023-01-06T21:21:40.171Z,80.17
2023-01-06T21:24:10.713Z,80.24
2023-01-06T21:26:41.501Z,80.24
2023-01-06T21:29:12.614Z,82.63
2023-01-06T21:31:43.040Z,80.26
2023-01-06T21:34:15.080Z,81.05
2023-01-06T21:36:46.767Z,82.26
2023-01-06T21:39:19.465Z,82.26
2023-01-06T21:41:50.393Z,82.31
2023-01-06T21:44:21.065Z,81.55
2023-01-06T21:46:52.450Z,81.79
2023-01-06T21:49:23.215Z,82.13
2023-01-06T21:51:55.458Z,82.13
2023-01-06T21:54:27.621Z,81.09
2023-01-06T21:56:58.061Z,81.09
2023-01-06T22:02:13.233Z,85.68
2023-01-06T22:04:46.889Z,83.05
2023-01-06T22:07:17.994Z,85.67
2023-01-06T22:09:52.555Z,86.81
2023-01-06T22:12:24.900Z,86.81
2023-01-06T22:15:00.880Z,84.65
2023-01-06T22:17:45.319Z,85.77
2023-01-06T22:20:16.596Z,85.77
2023-01-06T22:23:08.395Z,83.44
2023-01-06T22:25:48.648Z,85.83
2023-01-06T22:28:19.448Z,87.19
2023-01-06T22:30:50.240Z,85.01
2023-01-06T22:33:33.060Z,82.80
2023-01-06T22:36:03.710Z,84.13
2023-01-06T22:38:34.415Z,84.13
2023-01-06T22:41:11.231Z,84.53
2023-01-06T22:43:40.290Z,85.17
2023-01-06T22:46:10.737Z,85.84
2023-01-06T22:48:45.589Z,85.39
2023-01-06T22:51:17.087Z,85.39
2023-01-06T22:53:47.940Z,86.43
2023-01-06T22:56:19.106Z,86.60
2023-01-06T22:58:49.924Z,85.59
2023-01-06T23:01:20.653Z,85.59
2023-01-06T23:03:53.552Z,83.59
2023-01-06T23:06:24.154Z,83.41
2023-01-06T23:09:00.943Z,83.41
2023-01-06T23:11:32.686Z,87.12
2023-01-06T23:14:05.259Z,87.12
2023-01-06T23:16:37.798Z,85.46
2023-01-06T23:19:16.306Z,86.56
2023-01-06T23:21:46.918Z,86.56
2023-01-06T23:24:17.376Z,87.57
2023-01-06T23:26:47.959Z,86.37
2023-01-06T23:29:18.810Z,86.37
2023-01-06T23:31:54.876Z,86.57
2023-01-06T23:34:26.343Z,86.77
2023-01-06T23:36:57.248Z,86.77
2023-01-06T23:39:30.491Z,86.99
2023-01-06T23:42:02.364Z,84.60
2023-01-06T23:44:33.081Z,84.09
2023-01-06T23:47:04.064Z,84.09
2023-01-06T23:49:34.605Z,86.74
2023-01-06T23:52:05.227Z,86.68
2023-01-06T23:54:36.158Z,86.68
2023-01-06T23:57:06.583Z,86.99
2023-01-06T23:59:38.143Z,85.89
